This is the latest recevied weather packets stored in our database for station/object N8WEL. If no packets are shown the sender has not sent any weather packets the latest 1 day(s).
| Time | Temp. | Humidity | Pressure | Rain* | Wind** | Luminosity | Snow |
|---|---|---|---|---|---|---|---|
| 1778019616 | 15° C | 96% | 1006.9 hPa | 1.52 mm | 0 m/s | - | - |
| 1778019334 | 15° C | 96% | 1007.1 hPa | 1.02 mm | 0 m/s | - | - |
| 1778019156 | 15.56° C | 91% | 1006.9 hPa | 6.35 mm | 0 m/s | - | - |
| 1778019156 | 15.56° C | 91% | 1006.8 hPa | 6.1 mm | 0.45 m/s, 234° | - | - |
| 1778019155 | 15.56° C | 90% | 1007 hPa | 5.84 mm | 0.45 m/s, 238° | - | - |
| 1778019154 | 15.56° C | 89% | 1007 hPa | 5.59 mm | 0 m/s | - | - |
| 1778019154 | 16.11° C | 88% | 1007 hPa | 5.08 mm | 0 m/s | - | - |
| 1778019153 | 16.11° C | 85% | 1007.2 hPa | 4.57 mm | 0 m/s | - | - |
| 1778019152 | 16.67° C | 82% | 1007.2 hPa | 3.3 mm | 0 m/s | - | - |
| 1778019152 | 17.78° C | 78% | 1007 hPa | 2.03 mm | 0 m/s | - | - |
| 1778019151 | 18.33° C | 72% | 1006.7 hPa | 0 mm | 0 m/s | - | - |
| 1778011185 | 18.89° C | 68% | 1006.2 hPa | 0 mm | 0 m/s | - | - |
| 1778010891 | 18.89° C | 67% | 1006.3 hPa | 0 mm | 0 m/s | - | - |
| 1778010298 | 18.89° C | 66% | 1006.5 hPa | 0 mm | 0.45 m/s, 191° | - | - |
| 1778009984 | 19.44° C | 66% | 1006.6 hPa | 0 mm | 0.45 m/s, 175° | - | - |
| 1778009685 | 19.44° C | 65% | 1006.6 hPa | 0 mm | 0.89 m/s, 176° | - | - |
| 1778009421 | 19.44° C | 65% | 1006.7 hPa | 0 mm | 0.45 m/s, 178° | - | - |
| 1778009084 | 19.44° C | 65% | 1006.9 hPa | 0 mm | 0.45 m/s, 216° | - | - |
| 1778008784 | 19.44° C | 65% | 1006.8 hPa | 0 mm | 0 m/s | - | - |
| 1778008486 | 19.44° C | 65% | 1006.9 hPa | 0 mm | 0.45 m/s, 177° | - | - |
| 1778007844 | 19.44° C | 64% | 1006.9 hPa | 0 mm | 1.34 m/s, 166° | - | - |
| 1778007544 | 19.44° C | 65% | 1007.1 hPa | 0 mm | 0 m/s | - | - |
| 1778007245 | 19.44° C | 66% | 1007.2 hPa | 0 mm | 0 m/s | - | - |
| 1778006946 | 19.44° C | 65% | 1007.2 hPa | 0 mm | 0.45 m/s, 191° | - | - |
| 1778006644 | 19.44° C | 66% | 1007.2 hPa | 0 mm | 0 m/s | - | - |
* Rain latest hour (hover to see other rain measurements)
** Current wind speed in m/s (hover to see current wind gust speed)